sensor_id;sensor_type;location;lat;lon;timestamp;temperature;humidity
25188;DHT22;13141;50.414;8.050;2024-01-27T00:01:58;7.50;99.90
25188;DHT22;13141;50.414;8.050;2024-01-27T00:04:24;7.50;99.90
25188;DHT22;13141;50.414;8.050;2024-01-27T00:06:49;7.50;99.90
25188;DHT22;13141;50.414;8.050;2024-01-27T00:09:16;7.50;99.90
25188;DHT22;13141;50.414;8.050;2024-01-27T00:11:42;7.40;99.90
25188;DHT22;13141;50.414;8.050;2024-01-27T00:14:07;7.40;99.90
25188;DHT22;13141;50.414;8.050;2024-01-27T00:16:33;7.40;99.90
25188;DHT22;13141;50.414;8.050;2024-01-27T00:18:59;7.40;99.90
25188;DHT22;13141;50.414;8.050;2024-01-27T00:21:24;7.30;99.90
25188;DHT22;13141;50.414;8.050;2024-01-27T00:23:50;7.60;99.90
25188;DHT22;13141;50.414;8.050;2024-01-27T00:26:17;7.30;99.90
25188;DHT22;13141;50.414;8.050;2024-01-27T00:28:43;7.30;99.90
25188;DHT22;13141;50.414;8.050;2024-01-27T00:31:08;7.30;99.90
25188;DHT22;13141;50.414;8.050;2024-01-27T00:33:34;7.30;99.90
25188;DHT22;13141;50.414;8.050;2024-01-27T00:36:00;7.30;99.90
25188;DHT22;13141;50.414;8.050;2024-01-27T00:38:25;7.30;99.90
25188;DHT22;13141;50.414;8.050;2024-01-27T00:40:51;7.30;99.90
25188;DHT22;13141;50.414;8.050;2024-01-27T00:43:18;7.30;99.90
25188;DHT22;13141;50.414;8.050;2024-01-27T00:45:43;7.30;99.90
25188;DHT22;13141;50.414;8.050;2024-01-27T00:48:09;7.30;99.90
25188;DHT22;13141;50.414;8.050;2024-01-27T00:50:35;7.20;99.90
25188;DHT22;13141;50.414;8.050;2024-01-27T00:53:01;7.20;99.90
25188;DHT22;13141;50.414;8.050;2024-01-27T00:55:27;7.20;99.90
25188;DHT22;13141;50.414;8.050;2024-01-27T00:57:52;7.20;99.90
25188;DHT22;13141;50.414;8.050;2024-01-27T01:00:19;7.20;99.90
25188;DHT22;13141;50.414;8.050;2024-01-27T01:02:45;7.20;99.90
25188;DHT22;13141;50.414;8.050;2024-01-27T01:05:11;7.20;99.90
25188;DHT22;13141;50.414;8.050;2024-01-27T01:07:36;7.10;99.90
25188;DHT22;13141;50.414;8.050;2024-01-27T01:10:02;7.20;99.90
25188;DHT22;13141;50.414;8.050;2024-01-27T01:12:31;7.10;99.90
25188;DHT22;13141;50.414;8.050;2024-01-27T01:14:56;7.10;99.90
25188;DHT22;13141;50.414;8.050;2024-01-27T01:17:24;7.10;99.90
25188;DHT22;13141;50.414;8.050;2024-01-27T01:19:49;7.00;99.90
25188;DHT22;13141;50.414;8.050;2024-01-27T01:22:15;7.00;99.90
25188;DHT22;13141;50.414;8.050;2024-01-27T01:24:41;7.00;99.90
25188;DHT22;13141;50.414;8.050;2024-01-27T01:27:07;7.00;99.90
25188;DHT22;13141;50.414;8.050;2024-01-27T01:29:33;7.00;99.90
25188;DHT22;13141;50.414;8.050;2024-01-27T01:31:58;7.10;99.90
25188;DHT22;13141;50.414;8.050;2024-01-27T01:34:26;6.90;99.90
25188;DHT22;13141;50.414;8.050;2024-01-27T01:36:52;6.80;99.90
25188;DHT22;13141;50.414;8.050;2024-01-27T01:39:17;6.80;99.90
25188;DHT22;13141;50.414;8.050;2024-01-27T01:41:43;6.70;99.90
25188;DHT22;13141;50.414;8.050;2024-01-27T01:44:08;6.60;99.90
25188;DHT22;13141;50.414;8.050;2024-01-27T01:46:34;6.50;99.90
25188;DHT22;13141;50.414;8.050;2024-01-27T01:49:00;6.50;99.90
25188;DHT22;13141;50.414;8.050;2024-01-27T01:51:27;6.50;99.90
25188;DHT22;13141;50.414;8.050;2024-01-27T01:53:57;6.40;99.90
25188;DHT22;13141;50.414;8.050;2024-01-27T01:56:23;6.30;99.90
25188;DHT22;13141;50.414;8.050;2024-01-27T01:58:49;6.30;99.90
25188;DHT22;13141;50.414;8.050;2024-01-27T02:01:15;6.20;99.90
25188;DHT22;13141;50.414;8.050;2024-01-27T02:03:51;6.20;99.90
25188;DHT22;13141;50.414;8.050;2024-01-27T02:06:17;6.20;99.90
25188;DHT22;13141;50.414;8.050;2024-01-27T02:08:44;6.20;99.90
25188;DHT22;13141;50.414;8.050;2024-01-27T02:11:10;6.20;99.90
25188;DHT22;13141;50.414;8.050;2024-01-27T02:13:36;6.10;99.90
25188;DHT22;13141;50.414;8.050;2024-01-27T02:16:02;6.10;99.90
25188;DHT22;13141;50.414;8.050;2024-01-27T02:18:27;6.00;99.90
25188;DHT22;13141;50.414;8.050;2024-01-27T02:20:53;5.80;99.90
25188;DHT22;13141;50.414;8.050;2024-01-27T02:23:19;5.80;99.90
25188;DHT22;13141;50.414;8.050;2024-01-27T02:25:46;5.70;99.90
25188;DHT22;13141;50.414;8.050;2024-01-27T02:28:12;5.50;99.90
25188;DHT22;13141;50.414;8.050;2024-01-27T02:30:37;5.40;99.90
25188;DHT22;13141;50.414;8.050;2024-01-27T02:33:04;5.30;99.90
25188;DHT22;13141;50.414;8.050;2024-01-27T02:35:30;5.40;99.90
25188;DHT22;13141;50.414;8.050;2024-01-27T02:37:55;5.10;99.90
25188;DHT22;13141;50.414;8.050;2024-01-27T02:40:21;5.10;99.90
25188;DHT22;13141;50.414;8.050;2024-01-27T02:42:48;5.00;99.90
25188;DHT22;13141;50.414;8.050;2024-01-27T02:45:14;5.00;99.90
25188;DHT22;13141;50.414;8.050;2024-01-27T02:47:39;5.00;99.90
25188;DHT22;13141;50.414;8.050;2024-01-27T02:50:06;4.90;99.90
25188;DHT22;13141;50.414;8.050;2024-01-27T02:52:32;4.90;99.90
25188;DHT22;13141;50.414;8.050;2024-01-27T02:54:58;4.80;99.90
25188;DHT22;13141;50.414;8.050;2024-01-27T02:57:24;4.70;99.90
25188;DHT22;13141;50.414;8.050;2024-01-27T02:59:51;4.70;99.90
25188;DHT22;13141;50.414;8.050;2024-01-27T03:02:16;4.60;99.90
25188;DHT22;13141;50.414;8.050;2024-01-27T03:04:45;4.60;99.90
25188;DHT22;13141;50.414;8.050;2024-01-27T03:07:11;4.60;99.90
25188;DHT22;13141;50.414;8.050;2024-01-27T03:09:36;4.40;99.90
25188;DHT22;13141;50.414;8.050;2024-01-27T03:12:02;4.30;99.90
25188;DHT22;13141;50.414;8.050;2024-01-27T03:14:28;4.30;99.90
25188;DHT22;13141;50.414;8.050;2024-01-27T03:16:58;4.30;99.90
25188;DHT22;13141;50.414;8.050;2024-01-27T03:19:24;4.20;99.90
25188;DHT22;13141;50.414;8.050;2024-01-27T03:21:50;4.20;99.90
25188;DHT22;13141;50.414;8.050;2024-01-27T03:24:15;4.20;99.90
25188;DHT22;13141;50.414;8.050;2024-01-27T03:26:41;4.30;99.90
25188;DHT22;13141;50.414;8.050;2024-01-27T03:29:07;4.40;99.90
25188;DHT22;13141;50.414;8.050;2024-01-27T03:31:33;4.40;99.90
25188;DHT22;13141;50.414;8.050;2024-01-27T03:34:00;4.40;99.90
25188;DHT22;13141;50.414;8.050;2024-01-27T03:36:27;4.50;99.90
25188;DHT22;13141;50.414;8.050;2024-01-27T03:38:53;4.60;99.90
25188;DHT22;13141;50.414;8.050;2024-01-27T03:41:19;4.60;99.90
25188;DHT22;13141;50.414;8.050;2024-01-27T03:43:46;4.70;99.90
25188;DHT22;13141;50.414;8.050;2024-01-27T03:46:12;4.70;99.90
25188;DHT22;13141;50.414;8.050;2024-01-27T03:48:37;4.70;99.90
25188;DHT22;13141;50.414;8.050;2024-01-27T03:51:06;4.70;99.90
25188;DHT22;13141;50.414;8.050;2024-01-27T03:53:32;4.60;99.90
25188;DHT22;13141;50.414;8.050;2024-01-27T03:55:58;4.50;99.90
25188;DHT22;13141;50.414;8.050;2024-01-27T03:58:23;4.40;99.90
25188;DHT22;13141;50.414;8.050;2024-01-27T04:00:49;4.40;99.90
25188;DHT22;13141;50.414;8.050;2024-01-27T04:03:15;4.30;99.90
25188;DHT22;13141;50.414;8.050;2024-01-27T04:05:40;4.10;99.90
25188;DHT22;13141;50.414;8.050;2024-01-27T04:08:08;4.10;99.90
25188;DHT22;13141;50.414;8.050;2024-01-27T04:10:34;4.10;99.90
25188;DHT22;13141;50.414;8.050;2024-01-27T04:13:00;4.10;99.90
25188;DHT22;13141;50.414;8.050;2024-01-27T04:15:25;3.90;99.90
25188;DHT22;13141;50.414;8.050;2024-01-27T04:17:51;3.70;99.90
25188;DHT22;13141;50.414;8.050;2024-01-27T04:20:17;3.70;99.90
25188;DHT22;13141;50.414;8.050;2024-01-27T04:22:42;3.60;99.90
25188;DHT22;13141;50.414;8.050;2024-01-27T04:25:10;3.50;99.90
25188;DHT22;13141;50.414;8.050;2024-01-27T04:27:41;3.50;99.90
25188;DHT22;13141;50.414;8.050;2024-01-27T04:30:07;3.60;99.90
25188;DHT22;13141;50.414;8.050;2024-01-27T04:32:34;3.60;99.90
25188;DHT22;13141;50.414;8.050;2024-01-27T04:34:59;3.60;99.90
25188;DHT22;13141;50.414;8.050;2024-01-27T04:37:25;3.60;99.90
25188;DHT22;13141;50.414;8.050;2024-01-27T04:39:51;3.50;99.90
25188;DHT22;13141;50.414;8.050;2024-01-27T04:42:18;3.60;99.90
25188;DHT22;13141;50.414;8.050;2024-01-27T04:44:44;3.50;99.90
25188;DHT22;13141;50.414;8.050;2024-01-27T04:47:09;3.50;99.90
25188;DHT22;13141;50.414;8.050;2024-01-27T04:49:35;3.50;99.90
25188;DHT22;13141;50.414;8.050;2024-01-27T04:52:01;3.40;99.90
25188;DHT22;13141;50.414;8.050;2024-01-27T04:54:27;3.30;99.90
25188;DHT22;13141;50.414;8.050;2024-01-27T04:56:52;3.30;99.90
25188;DHT22;13141;50.414;8.050;2024-01-27T04:59:22;3.30;99.90
25188;DHT22;13141;50.414;8.050;2024-01-27T05:01:48;3.30;99.90
25188;DHT22;13141;50.414;8.050;2024-01-27T05:04:14;3.30;99.90
25188;DHT22;13141;50.414;8.050;2024-01-27T05:06:43;3.30;99.90
25188;DHT22;13141;50.414;8.050;2024-01-27T05:09:09;3.20;99.90
25188;DHT22;13141;50.414;8.050;2024-01-27T05:11:35;3.20;99.90
25188;DHT22;13141;50.414;8.050;2024-01-27T05:14:01;3.40;99.90
25188;DHT22;13141;50.414;8.050;2024-01-27T05:16:28;3.40;99.90
25188;DHT22;13141;50.414;8.050;2024-01-27T05:18:54;3.40;99.90
25188;DHT22;13141;50.414;8.050;2024-01-27T05:21:21;3.30;99.90
25188;DHT22;13141;50.414;8.050;2024-01-27T05:23:47;3.20;99.90
25188;DHT22;13141;50.414;8.050;2024-01-27T05:26:13;3.10;99.90
25188;DHT22;13141;50.414;8.050;2024-01-27T05:28:39;3.10;99.90
25188;DHT22;13141;50.414;8.050;2024-01-27T05:31:07;3.10;99.90
25188;DHT22;13141;50.414;8.050;2024-01-27T05:33:34;3.20;99.90
25188;DHT22;13141;50.414;8.050;2024-01-27T05:36:01;3.30;99.90
25188;DHT22;13141;50.414;8.050;2024-01-27T05:38:26;3.30;99.90
25188;DHT22;13141;50.414;8.050;2024-01-27T05:40:52;3.30;99.90
25188;DHT22;13141;50.414;8.050;2024-01-27T05:43:19;3.40;99.90
25188;DHT22;13141;50.414;8.050;2024-01-27T05:45:45;3.40;99.90
25188;DHT22;13141;50.414;8.050;2024-01-27T05:48:11;3.40;99.90
25188;DHT22;13141;50.414;8.050;2024-01-27T05:50:41;3.40;99.90
25188;DHT22;13141;50.414;8.050;2024-01-27T05:53:08;3.40;99.90
25188;DHT22;13141;50.414;8.050;2024-01-27T05:55:33;3.40;99.90
25188;DHT22;13141;50.414;8.050;2024-01-27T05:57:59;3.40;99.90
25188;DHT22;13141;50.414;8.050;2024-01-27T06:00:26;3.30;99.90
25188;DHT22;13141;50.414;8.050;2024-01-27T06:02:53;3.30;99.90
25188;DHT22;13141;50.414;8.050;2024-01-27T06:05:19;3.20;99.90
25188;DHT22;13141;50.414;8.050;2024-01-27T06:07:46;3.20;99.90
25188;DHT22;13141;50.414;8.050;2024-01-27T06:10:12;3.10;99.90
25188;DHT22;13141;50.414;8.050;2024-01-27T06:12:39;2.70;99.90
25188;DHT22;13141;50.414;8.050;2024-01-27T06:15:07;3.00;99.90
25188;DHT22;13141;50.414;8.050;2024-01-27T06:17:34;3.00;99.90
25188;DHT22;13141;50.414;8.050;2024-01-27T06:19:59;3.00;99.90
25188;DHT22;13141;50.414;8.050;2024-01-27T06:22:25;3.00;99.90
25188;DHT22;13141;50.414;8.050;2024-01-27T06:24:52;3.00;99.90
25188;DHT22;13141;50.414;8.050;2024-01-27T06:27:19;2.90;99.90
25188;DHT22;13141;50.414;8.050;2024-01-27T06:29:45;2.90;99.90
25188;DHT22;13141;50.414;8.050;2024-01-27T06:32:11;2.90;99.90
25188;DHT22;13141;50.414;8.050;2024-01-27T06:34:36;2.80;99.90
25188;DHT22;13141;50.414;8.050;2024-01-27T06:37:02;2.80;99.90
25188;DHT22;13141;50.414;8.050;2024-01-27T06:39:28;2.80;99.90
25188;DHT22;13141;50.414;8.050;2024-01-27T06:41:55;2.80;99.90
25188;DHT22;13141;50.414;8.050;2024-01-27T06:44:21;2.70;99.90
25188;DHT22;13141;50.414;8.050;2024-01-27T06:46:47;3.00;99.90
25188;DHT22;13141;50.414;8.050;2024-01-27T06:49:12;2.70;99.90
25188;DHT22;13141;50.414;8.050;2024-01-27T06:51:38;2.70;99.90
25188;DHT22;13141;50.414;8.050;2024-01-27T06:54:04;2.70;99.90
25188;DHT22;13141;50.414;8.050;2024-01-27T06:56:29;2.70;99.90
25188;DHT22;13141;50.414;8.050;2024-01-27T06:58:56;2.60;99.90
25188;DHT22;13141;50.414;8.050;2024-01-27T07:01:22;2.60;99.90
25188;DHT22;13141;50.414;8.050;2024-01-27T07:03:49;2.50;99.90
25188;DHT22;13141;50.414;8.050;2024-01-27T07:06:15;2.50;99.90
25188;DHT22;13141;50.414;8.050;2024-01-27T07:08:41;2.50;99.90
25188;DHT22;13141;50.414;8.050;2024-01-27T07:11:06;2.50;99.90
25188;DHT22;13141;50.414;8.050;2024-01-27T07:13:33;2.50;99.90
25188;DHT22;13141;50.414;8.050;2024-01-27T07:16:00;2.50;99.90
25188;DHT22;13141;50.414;8.050;2024-01-27T07:18:30;2.60;99.90
25188;DHT22;13141;50.414;8.050;2024-01-27T07:20:56;2.10;99.90
25188;DHT22;13141;50.414;8.050;2024-01-27T07:23:23;2.40;99.90
25188;DHT22;13141;50.414;8.050;2024-01-27T07:25:49;1.90;99.90
25188;DHT22;13141;50.414;8.050;2024-01-27T07:28:15;2.20;99.90
25188;DHT22;13141;50.414;8.050;2024-01-27T07:30:41;2.10;99.90
25188;DHT22;13141;50.414;8.050;2024-01-27T07:33:08;2.30;99.90
25188;DHT22;13141;50.414;8.050;2024-01-27T07:35:34;2.20;99.90
25188;DHT22;13141;50.414;8.050;2024-01-27T07:38:10;2.20;99.90
25188;DHT22;13141;50.414;8.050;2024-01-27T07:40:35;2.00;99.90
25188;DHT22;13141;50.414;8.050;2024-01-27T07:43:01;2.20;99.90
25188;DHT22;13141;50.414;8.050;2024-01-27T07:45:27;2.50;99.90
25188;DHT22;13141;50.414;8.050;2024-01-27T07:47:56;2.30;99.90
25188;DHT22;13141;50.414;8.050;2024-01-27T07:50:25;2.20;99.90
25188;DHT22;13141;50.414;8.050;2024-01-27T07:52:51;2.30;99.90
25188;DHT22;13141;50.414;8.050;2024-01-27T07:55:17;2.50;99.90
25188;DHT22;13141;50.414;8.050;2024-01-27T07:57:43;2.50;99.90
25188;DHT22;13141;50.414;8.050;2024-01-27T08:00:10;2.30;99.90
25188;DHT22;13141;50.414;8.050;2024-01-27T08:02:36;2.20;99.90
25188;DHT22;13141;50.414;8.050;2024-01-27T08:05:03;2.10;99.90
25188;DHT22;13141;50.414;8.050;2024-01-27T08:07:31;2.40;99.90
25188;DHT22;13141;50.414;8.050;2024-01-27T08:10:01;2.00;99.90
25188;DHT22;13141;50.414;8.050;2024-01-27T08:12:27;2.10;99.90
25188;DHT22;13141;50.414;8.050;2024-01-27T08:14:53;2.10;99.90
25188;DHT22;13141;50.414;8.050;2024-01-27T08:17:19;2.20;99.90
25188;DHT22;13141;50.414;8.050;2024-01-27T08:19:45;2.50;99.90
25188;DHT22;13141;50.414;8.050;2024-01-27T08:22:11;2.30;99.90
25188;DHT22;13141;50.414;8.050;2024-01-27T08:24:38;2.40;99.90
25188;DHT22;13141;50.414;8.050;2024-01-27T08:27:04;2.30;99.90
25188;DHT22;13141;50.414;8.050;2024-01-27T08:29:30;2.30;99.90
25188;DHT22;13141;50.414;8.050;2024-01-27T08:31:56;2.40;99.90
25188;DHT22;13141;50.414;8.050;2024-01-27T08:34:25;2.40;99.90
25188;DHT22;13141;50.414;8.050;2024-01-27T08:36:51;2.60;99.90
25188;DHT22;13141;50.414;8.050;2024-01-27T08:39:17;2.50;99.90
25188;DHT22;13141;50.414;8.050;2024-01-27T08:41:44;2.60;99.90
25188;DHT22;13141;50.414;8.050;2024-01-27T08:44:10;2.80;99.90
25188;DHT22;13141;50.414;8.050;2024-01-27T08:46:36;2.60;99.90
25188;DHT22;13141;50.414;8.050;2024-01-27T08:49:02;2.70;99.90
25188;DHT22;13141;50.414;8.050;2024-01-27T08:51:28;2.70;99.90
25188;DHT22;13141;50.414;8.050;2024-01-27T08:53:53;2.60;99.90
25188;DHT22;13141;50.414;8.050;2024-01-27T08:56:19;2.60;99.90
25188;DHT22;13141;50.414;8.050;2024-01-27T08:58:48;2.70;99.90
25188;DHT22;13141;50.414;8.050;2024-01-27T09:01:16;2.70;99.90
25188;DHT22;13141;50.414;8.050;2024-01-27T09:03:42;2.80;99.90
25188;DHT22;13141;50.414;8.050;2024-01-27T09:06:08;2.80;99.90
25188;DHT22;13141;50.414;8.050;2024-01-27T09:08:34;2.90;99.90
25188;DHT22;13141;50.414;8.050;2024-01-27T09:10:59;3.00;99.90
25188;DHT22;13141;50.414;8.050;2024-01-27T09:13:25;3.20;99.90
25188;DHT22;13141;50.414;8.050;2024-01-27T09:15:52;3.40;99.90
25188;DHT22;13141;50.414;8.050;2024-01-27T09:18:18;3.70;99.90
25188;DHT22;13141;50.414;8.050;2024-01-27T09:20:44;4.00;99.90
25188;DHT22;13141;50.414;8.050;2024-01-27T09:23:10;4.40;99.90
25188;DHT22;13141;50.414;8.050;2024-01-27T09:25:35;4.70;99.90
25188;DHT22;13141;50.414;8.050;2024-01-27T09:28:01;5.00;99.90
25188;DHT22;13141;50.414;8.050;2024-01-27T09:30:27;5.20;99.90
25188;DHT22;13141;50.414;8.050;2024-01-27T09:32:54;5.50;99.90
25188;DHT22;13141;50.414;8.050;2024-01-27T09:35:21;6.00;99.90
25188;DHT22;13141;50.414;8.050;2024-01-27T09:37:47;6.10;99.90
25188;DHT22;13141;50.414;8.050;2024-01-27T09:40:15;6.30;99.90
25188;DHT22;13141;50.414;8.050;2024-01-27T09:42:42;6.60;99.90
25188;DHT22;13141;50.414;8.050;2024-01-27T09:45:11;6.70;99.90
25188;DHT22;13141;50.414;8.050;2024-01-27T09:47:37;6.70;99.90
25188;DHT22;13141;50.414;8.050;2024-01-27T09:50:06;6.60;99.90
25188;DHT22;13141;50.414;8.050;2024-01-27T09:52:38;6.60;99.90
25188;DHT22;13141;50.414;8.050;2024-01-27T09:55:05;6.80;99.90
25188;DHT22;13141;50.414;8.050;2024-01-27T09:57:31;7.10;99.90
25188;DHT22;13141;50.414;8.050;2024-01-27T09:59:57;7.40;99.90
25188;DHT22;13141;50.414;8.050;2024-01-27T10:02:24;7.80;99.90
25188;DHT22;13141;50.414;8.050;2024-01-27T10:04:50;8.10;99.90
25188;DHT22;13141;50.414;8.050;2024-01-27T10:07:18;8.20;99.90
25188;DHT22;13141;50.414;8.050;2024-01-27T10:09:43;8.60;99.90
25188;DHT22;13141;50.414;8.050;2024-01-27T10:12:10;8.50;99.90
25188;DHT22;13141;50.414;8.050;2024-01-27T10:14:38;8.30;99.90
25188;DHT22;13141;50.414;8.050;2024-01-27T10:17:04;8.20;99.90
25188;DHT22;13141;50.414;8.050;2024-01-27T10:19:31;8.30;99.90
25188;DHT22;13141;50.414;8.050;2024-01-27T10:22:06;8.50;99.90
25188;DHT22;13141;50.414;8.050;2024-01-27T10:24:33;8.60;99.90
25188;DHT22;13141;50.414;8.050;2024-01-27T10:27:00;8.70;99.90
25188;DHT22;13141;50.414;8.050;2024-01-27T10:29:26;9.00;99.90
25188;DHT22;13141;50.414;8.050;2024-01-27T10:31:52;8.80;99.90
25188;DHT22;13141;50.414;8.050;2024-01-27T10:34:19;8.90;99.90
25188;DHT22;13141;50.414;8.050;2024-01-27T10:36:49;9.30;99.90
25188;DHT22;13141;50.414;8.050;2024-01-27T10:39:18;9.60;99.90
25188;DHT22;13141;50.414;8.050;2024-01-27T10:41:50;9.90;99.90
25188;DHT22;13141;50.414;8.050;2024-01-27T10:44:18;10.20;99.90
25188;DHT22;13141;50.414;8.050;2024-01-27T10:46:45;10.20;99.90
25188;DHT22;13141;50.414;8.050;2024-01-27T10:49:13;10.40;99.90
25188;DHT22;13141;50.414;8.050;2024-01-27T10:51:43;10.60;99.90
25188;DHT22;13141;50.414;8.050;2024-01-27T10:54:13;10.80;99.90
25188;DHT22;13141;50.414;8.050;2024-01-27T10:56:40;11.20;99.90
25188;DHT22;13141;50.414;8.050;2024-01-27T10:59:12;11.30;99.90
25188;DHT22;13141;50.414;8.050;2024-01-27T11:01:40;11.10;99.90
25188;DHT22;13141;50.414;8.050;2024-01-27T11:04:08;11.00;99.90
25188;DHT22;13141;50.414;8.050;2024-01-27T11:06:37;11.10;99.90
25188;DHT22;13141;50.414;8.050;2024-01-27T11:09:08;11.20;99.90
25188;DHT22;13141;50.414;8.050;2024-01-27T11:11:34;11.60;99.90
25188;DHT22;13141;50.414;8.050;2024-01-27T11:14:01;11.90;99.90
25188;DHT22;13141;50.414;8.050;2024-01-27T11:16:28;12.10;99.90
25188;DHT22;13141;50.414;8.050;2024-01-27T11:18:54;12.40;99.90
25188;DHT22;13141;50.414;8.050;2024-01-27T11:21:20;12.40;99.90
25188;DHT22;13141;50.414;8.050;2024-01-27T11:23:46;12.50;99.90
25188;DHT22;13141;50.414;8.050;2024-01-27T11:26:18;12.60;99.90
25188;DHT22;13141;50.414;8.050;2024-01-27T11:28:46;12.70;99.90
25188;DHT22;13141;50.414;8.050;2024-01-27T11:31:11;12.90;99.90
25188;DHT22;13141;50.414;8.050;2024-01-27T11:33:43;13.00;99.90
25188;DHT22;13141;50.414;8.050;2024-01-27T11:36:18;13.20;99.90
25188;DHT22;13141;50.414;8.050;2024-01-27T11:38:46;13.50;99.90
25188;DHT22;13141;50.414;8.050;2024-01-27T11:41:12;13.40;99.90
25188;DHT22;13141;50.414;8.050;2024-01-27T11:43:51;13.60;99.90
25188;DHT22;13141;50.414;8.050;2024-01-27T11:49:28;14.00;99.90
25188;DHT22;13141;50.414;8.050;2024-01-27T11:51:54;14.30;99.90
25188;DHT22;13141;50.414;8.050;2024-01-27T11:54:20;14.30;99.50
25188;DHT22;13141;50.414;8.050;2024-01-27T11:56:49;14.20;99.90
25188;DHT22;13141;50.414;8.050;2024-01-27T11:59:15;14.30;99.90
25188;DHT22;13141;50.414;8.050;2024-01-27T12:01:41;14.60;99.90
25188;DHT22;13141;50.414;8.050;2024-01-27T12:04:07;14.70;99.20
25188;DHT22;13141;50.414;8.050;2024-01-27T12:06:36;14.90;98.70
25188;DHT22;13141;50.414;8.050;2024-01-27T12:09:02;15.00;98.10
25188;DHT22;13141;50.414;8.050;2024-01-27T12:11:28;14.70;98.50
25188;DHT22;13141;50.414;8.050;2024-01-27T12:13:53;15.10;98.30
25188;DHT22;13141;50.414;8.050;2024-01-27T12:16:21;15.10;97.70
25188;DHT22;13141;50.414;8.050;2024-01-27T12:18:47;15.60;96.90
25188;DHT22;13141;50.414;8.050;2024-01-27T12:21:13;15.60;96.70
25188;DHT22;13141;50.414;8.050;2024-01-27T12:23:55;15.20;96.10
25188;DHT22;13141;50.414;8.050;2024-01-27T12:26:22;15.40;96.40
25188;DHT22;13141;50.414;8.050;2024-01-27T12:28:47;15.20;98.50
25188;DHT22;13141;50.414;8.050;2024-01-27T12:31:15;15.70;96.30
25188;DHT22;13141;50.414;8.050;2024-01-27T12:33:48;15.90;96.30
25188;DHT22;13141;50.414;8.050;2024-01-27T12:36:14;16.10;96.10
25188;DHT22;13141;50.414;8.050;2024-01-27T12:38:40;16.10;96.60
25188;DHT22;13141;50.414;8.050;2024-01-27T12:41:07;16.20;97.20
25188;DHT22;13141;50.414;8.050;2024-01-27T12:43:33;16.50;96.20
25188;DHT22;13141;50.414;8.050;2024-01-27T12:45:58;16.60;96.20
25188;DHT22;13141;50.414;8.050;2024-01-27T12:48:27;16.70;96.10
25188;DHT22;13141;50.414;8.050;2024-01-27T12:50:53;16.90;94.90
25188;DHT22;13141;50.414;8.050;2024-01-27T12:53:19;17.10;95.10
25188;DHT22;13141;50.414;8.050;2024-01-27T12:55:44;17.30;94.50
25188;DHT22;13141;50.414;8.050;2024-01-27T12:58:13;17.40;96.20
25188;DHT22;13141;50.414;8.050;2024-01-27T13:00:39;17.30;93.80
25188;DHT22;13141;50.414;8.050;2024-01-27T13:03:06;17.40;93.30
25188;DHT22;13141;50.414;8.050;2024-01-27T13:05:32;17.40;93.20
25188;DHT22;13141;50.414;8.050;2024-01-27T13:07:58;17.40;92.10
25188;DHT22;13141;50.414;8.050;2024-01-27T13:10:24;17.50;92.40
25188;DHT22;13141;50.414;8.050;2024-01-27T13:12:50;17.00;92.30
25188;DHT22;13141;50.414;8.050;2024-01-27T13:15:17;16.90;89.40
25188;DHT22;13141;50.414;8.050;2024-01-27T13:17:43;17.00;91.70
25188;DHT22;13141;50.414;8.050;2024-01-27T13:20:10;17.10;91.60
25188;DHT22;13141;50.414;8.050;2024-01-27T13:22:36;16.90;90.50
25188;DHT22;13141;50.414;8.050;2024-01-27T13:25:11;16.50;90.00
25188;DHT22;13141;50.414;8.050;2024-01-27T13:27:39;17.10;90.60
25188;DHT22;13141;50.414;8.050;2024-01-27T13:30:06;17.20;91.10
25188;DHT22;13141;50.414;8.050;2024-01-27T13:32:43;17.00;85.20
25188;DHT22;13141;50.414;8.050;2024-01-27T13:35:09;16.80;90.00
25188;DHT22;13141;50.414;8.050;2024-01-27T13:37:35;17.20;89.00
25188;DHT22;13141;50.414;8.050;2024-01-27T13:40:01;17.10;91.10
25188;DHT22;13141;50.414;8.050;2024-01-27T13:42:27;17.60;90.10
25188;DHT22;13141;50.414;8.050;2024-01-27T13:44:53;16.70;85.40
25188;DHT22;13141;50.414;8.050;2024-01-27T13:47:19;16.80;89.70
25188;DHT22;13141;50.414;8.050;2024-01-27T13:49:48;16.50;89.00
25188;DHT22;13141;50.414;8.050;2024-01-27T13:52:14;16.50;87.90
25188;DHT22;13141;50.414;8.050;2024-01-27T13:54:41;16.30;90.30
25188;DHT22;13141;50.414;8.050;2024-01-27T13:57:07;16.10;85.90
25188;DHT22;13141;50.414;8.050;2024-01-27T13:59:32;16.00;88.30
25188;DHT22;13141;50.414;8.050;2024-01-27T14:01:58;16.10;87.40
25188;DHT22;13141;50.414;8.050;2024-01-27T14:04:24;16.30;89.40
25188;DHT22;13141;50.414;8.050;2024-01-27T14:06:52;16.60;90.60
25188;DHT22;13141;50.414;8.050;2024-01-27T14:09:18;16.50;89.20
25188;DHT22;13141;50.414;8.050;2024-01-27T14:11:44;17.00;89.40
25188;DHT22;13141;50.414;8.050;2024-01-27T14:14:11;16.50;86.70
25188;DHT22;13141;50.414;8.050;2024-01-27T14:16:37;17.00;89.30
25188;DHT22;13141;50.414;8.050;2024-01-27T14:19:03;16.70;88.20
25188;DHT22;13141;50.414;8.050;2024-01-27T14:21:29;16.10;82.10
25188;DHT22;13141;50.414;8.050;2024-01-27T14:23:56;15.70;86.20
25188;DHT22;13141;50.414;8.050;2024-01-27T14:26:21;15.20;83.20
25188;DHT22;13141;50.414;8.050;2024-01-27T14:28:47;15.00;86.70
25188;DHT22;13141;50.414;8.050;2024-01-27T14:31:13;15.20;87.60
25188;DHT22;13141;50.414;8.050;2024-01-27T14:33:39;15.30;85.80
25188;DHT22;13141;50.414;8.050;2024-01-27T14:36:06;15.10;87.70
25188;DHT22;13141;50.414;8.050;2024-01-27T14:38:31;14.70;86.10
25188;DHT22;13141;50.414;8.050;2024-01-27T14:40:58;14.30;86.80
25188;DHT22;13141;50.414;8.050;2024-01-27T14:43:24;14.40;90.30
25188;DHT22;13141;50.414;8.050;2024-01-27T14:45:50;14.70;89.20
25188;DHT22;13141;50.414;8.050;2024-01-27T14:48:16;15.20;88.50
25188;DHT22;13141;50.414;8.050;2024-01-27T14:50:41;15.30;87.90
25188;DHT22;13141;50.414;8.050;2024-01-27T14:53:07;15.40;87.90
25188;DHT22;13141;50.414;8.050;2024-01-27T14:55:33;15.40;87.20
25188;DHT22;13141;50.414;8.050;2024-01-27T14:58:00;15.50;88.20
25188;DHT22;13141;50.414;8.050;2024-01-27T15:00:26;15.50;89.10
25188;DHT22;13141;50.414;8.050;2024-01-27T15:02:51;15.50;90.40
25188;DHT22;13141;50.414;8.050;2024-01-27T15:05:17;15.50;90.40
25188;DHT22;13141;50.414;8.050;2024-01-27T15:07:43;15.30;90.80
25188;DHT22;13141;50.414;8.050;2024-01-27T15:10:09;15.20;91.00
25188;DHT22;13141;50.414;8.050;2024-01-27T15:12:35;15.10;91.50
25188;DHT22;13141;50.414;8.050;2024-01-27T15:15:02;15.20;91.90
25188;DHT22;13141;50.414;8.050;2024-01-27T15:17:28;14.80;91.90
25188;DHT22;13141;50.414;8.050;2024-01-27T15:19:54;14.70;93.20
25188;DHT22;13141;50.414;8.050;2024-01-27T15:22:19;14.50;93.30
25188;DHT22;13141;50.414;8.050;2024-01-27T15:24:45;14.40;93.40
25188;DHT22;13141;50.414;8.050;2024-01-27T15:27:11;14.20;93.10
25188;DHT22;13141;50.414;8.050;2024-01-27T15:29:37;14.10;92.30
25188;DHT22;13141;50.414;8.050;2024-01-27T15:32:05;14.10;92.60
25188;DHT22;13141;50.414;8.050;2024-01-27T15:34:30;13.90;92.60
25188;DHT22;13141;50.414;8.050;2024-01-27T15:36:56;13.70;92.90
25188;DHT22;13141;50.414;8.050;2024-01-27T15:39:22;13.80;92.90
25188;DHT22;13141;50.414;8.050;2024-01-27T15:41:47;13.50;92.60